sensor_id;sensor_type;location;lat;lon;timestamp;P1;durP1;ratioP1;P2;durP2;ratioP2
67665;SDS011;54448;51.472;-2.574;2022-12-07T00:01:23;32.88;;;13.57;;
67665;SDS011;54448;51.472;-2.574;2022-12-07T00:03:52;37.35;;;13.52;;
67665;SDS011;54448;51.472;-2.574;2022-12-07T00:06:19;26.50;;;12.43;;
67665;SDS011;54448;51.472;-2.574;2022-12-07T00:08:45;41.35;;;13.60;;
67665;SDS011;54448;51.472;-2.574;2022-12-07T00:11:18;31.00;;;13.45;;
67665;SDS011;54448;51.472;-2.574;2022-12-07T00:18:39;33.08;;;13.23;;
67665;SDS011;54448;51.472;-2.574;2022-12-07T00:21:09;36.53;;;13.93;;
67665;SDS011;54448;51.472;-2.574;2022-12-07T00:23:36;35.85;;;13.52;;
67665;SDS011;54448;51.472;-2.574;2022-12-07T00:26:03;30.63;;;13.13;;
67665;SDS011;54448;51.472;-2.574;2022-12-07T00:28:32;41.15;;;15.10;;
67665;SDS011;54448;51.472;-2.574;2022-12-07T00:31:05;43.72;;;15.98;;
67665;SDS011;54448;51.472;-2.574;2022-12-07T00:33:32;36.22;;;13.98;;
67665;SDS011;54448;51.472;-2.574;2022-12-07T00:35:58;34.63;;;13.93;;
67665;SDS011;54448;51.472;-2.574;2022-12-07T00:38:24;31.70;;;13.13;;
67665;SDS011;54448;51.472;-2.574;2022-12-07T00:40:58;36.08;;;13.57;;
67665;SDS011;54448;51.472;-2.574;2022-12-07T00:43:25;34.70;;;12.93;;
67665;SDS011;54448;51.472;-2.574;2022-12-07T00:45:50;32.45;;;12.48;;
67665;SDS011;54448;51.472;-2.574;2022-12-07T00:48:16;31.50;;;12.70;;
67665;SDS011;54448;51.472;-2.574;2022-12-07T00:50:41;34.38;;;12.52;;
67665;SDS011;54448;51.472;-2.574;2022-12-07T00:53:07;30.70;;;12.48;;
67665;SDS011;54448;51.472;-2.574;2022-12-07T00:55:33;36.15;;;13.35;;
67665;SDS011;54448;51.472;-2.574;2022-12-07T00:57:58;32.28;;;12.43;;
67665;SDS011;54448;51.472;-2.574;2022-12-07T01:00:24;32.90;;;13.27;;
67665;SDS011;54448;51.472;-2.574;2022-12-07T01:02:49;34.08;;;13.73;;
67665;SDS011;54448;51.472;-2.574;2022-12-07T01:05:14;39.08;;;13.75;;
67665;SDS011;54448;51.472;-2.574;2022-12-07T01:07:40;38.95;;;13.65;;
67665;SDS011;54448;51.472;-2.574;2022-12-07T01:10:05;30.30;;;13.23;;
67665;SDS011;54448;51.472;-2.574;2022-12-07T01:12:31;33.47;;;13.05;;
67665;SDS011;54448;51.472;-2.574;2022-12-07T01:14:56;32.15;;;12.52;;
67665;SDS011;54448;51.472;-2.574;2022-12-07T01:17:22;29.38;;;11.77;;
67665;SDS011;54448;51.472;-2.574;2022-12-07T01:19:47;33.75;;;12.70;;
67665;SDS011;54448;51.472;-2.574;2022-12-07T01:22:12;30.60;;;11.57;;
67665;SDS011;54448;51.472;-2.574;2022-12-07T01:24:38;30.33;;;12.25;;
67665;SDS011;54448;51.472;-2.574;2022-12-07T01:27:03;32.78;;;13.40;;
67665;SDS011;54448;51.472;-2.574;2022-12-07T01:29:28;36.05;;;13.18;;
67665;SDS011;54448;51.472;-2.574;2022-12-07T01:31:54;36.22;;;12.82;;
67665;SDS011;54448;51.472;-2.574;2022-12-07T01:34:19;29.45;;;12.18;;
67665;SDS011;54448;51.472;-2.574;2022-12-07T01:36:44;33.22;;;12.93;;
67665;SDS011;54448;51.472;-2.574;2022-12-07T01:39:10;37.78;;;13.25;;
67665;SDS011;54448;51.472;-2.574;2022-12-07T01:41:37;32.65;;;13.77;;
67665;SDS011;54448;51.472;-2.574;2022-12-07T01:46:53;38.13;;;13.85;;
67665;SDS011;54448;51.472;-2.574;2022-12-07T01:49:22;38.17;;;13.18;;
67665;SDS011;54448;51.472;-2.574;2022-12-07T01:51:52;31.60;;;12.35;;
67665;SDS011;54448;51.472;-2.574;2022-12-07T01:54:20;33.05;;;13.40;;
67665;SDS011;54448;51.472;-2.574;2022-12-07T01:56:48;37.50;;;12.32;;
67665;SDS011;54448;51.472;-2.574;2022-12-07T01:59:16;34.60;;;13.85;;
67665;SDS011;54448;51.472;-2.574;2022-12-07T02:01:43;33.58;;;13.68;;
67665;SDS011;54448;51.472;-2.574;2022-12-07T02:04:08;36.88;;;13.23;;
67665;SDS011;54448;51.472;-2.574;2022-12-07T02:06:35;30.17;;;12.98;;
67665;SDS011;54448;51.472;-2.574;2022-12-07T02:09:02;31.35;;;12.45;;
67665;SDS011;54448;51.472;-2.574;2022-12-07T02:11:27;34.67;;;13.13;;
67665;SDS011;54448;51.472;-2.574;2022-12-07T02:13:53;39.17;;;13.15;;
67665;SDS011;54448;51.472;-2.574;2022-12-07T02:16:53;32.25;;;12.43;;
67665;SDS011;54448;51.472;-2.574;2022-12-07T02:19:23;30.25;;;11.48;;
67665;SDS011;54448;51.472;-2.574;2022-12-07T02:22:11;32.35;;;11.82;;
67665;SDS011;54448;51.472;-2.574;2022-12-07T02:24:52;43.53;;;13.63;;
67665;SDS011;54448;51.472;-2.574;2022-12-07T02:30:19;31.90;;;11.40;;
67665;SDS011;54448;51.472;-2.574;2022-12-07T02:32:51;32.28;;;12.80;;
67665;SDS011;54448;51.472;-2.574;2022-12-07T02:35:28;33.90;;;12.35;;
67665;SDS011;54448;51.472;-2.574;2022-12-07T02:38:02;37.03;;;12.80;;
67665;SDS011;54448;51.472;-2.574;2022-12-07T02:40:35;33.40;;;12.52;;
67665;SDS011;54448;51.472;-2.574;2022-12-07T02:43:50;30.23;;;13.13;;
67665;SDS011;54448;51.472;-2.574;2022-12-07T02:45:50;33.58;;;13.25;;
67665;SDS011;54448;51.472;-2.574;2022-12-07T02:48:17;29.10;;;12.13;;
67665;SDS011;54448;51.472;-2.574;2022-12-07T02:50:50;34.25;;;12.65;;
67665;SDS011;54448;51.472;-2.574;2022-12-07T02:56:00;33.58;;;13.15;;
67665;SDS011;54448;51.472;-2.574;2022-12-07T03:04:22;35.80;;;12.05;;
67665;SDS011;54448;51.472;-2.574;2022-12-07T03:06:56;35.25;;;12.18;;
67665;SDS011;54448;51.472;-2.574;2022-12-07T03:09:36;37.72;;;12.55;;
67665;SDS011;54448;51.472;-2.574;2022-12-07T03:12:12;34.05;;;12.32;;
67665;SDS011;54448;51.472;-2.574;2022-12-07T03:14:45;34.20;;;13.00;;
67665;SDS011;54448;51.472;-2.574;2022-12-07T03:17:14;32.50;;;13.40;;
67665;SDS011;54448;51.472;-2.574;2022-12-07T03:19:42;38.28;;;12.15;;
67665;SDS011;54448;51.472;-2.574;2022-12-07T03:22:10;35.72;;;13.55;;
67665;SDS011;54448;51.472;-2.574;2022-12-07T03:24:39;40.72;;;13.02;;
67665;SDS011;54448;51.472;-2.574;2022-12-07T03:27:28;29.52;;;12.43;;
67665;SDS011;54448;51.472;-2.574;2022-12-07T03:30:00;34.45;;;12.38;;
67665;SDS011;54448;51.472;-2.574;2022-12-07T03:40:39;37.28;;;12.25;;
67665;SDS011;54448;51.472;-2.574;2022-12-07T03:43:11;30.95;;;11.77;;
67665;SDS011;54448;51.472;-2.574;2022-12-07T03:45:41;32.72;;;12.15;;
67665;SDS011;54448;51.472;-2.574;2022-12-07T03:48:22;33.22;;;12.85;;
67665;SDS011;54448;51.472;-2.574;2022-12-07T03:50:56;30.25;;;12.77;;
67665;SDS011;54448;51.472;-2.574;2022-12-07T03:53:39;26.10;;;11.48;;
67665;SDS011;54448;51.472;-2.574;2022-12-07T03:56:09;37.55;;;12.15;;
67665;SDS011;54448;51.472;-2.574;2022-12-07T03:58:35;35.40;;;12.13;;
67665;SDS011;54448;51.472;-2.574;2022-12-07T04:01:01;35.33;;;12.48;;
67665;SDS011;54448;51.472;-2.574;2022-12-07T04:03:27;31.58;;;12.10;;
67665;SDS011;54448;51.472;-2.574;2022-12-07T04:05:52;42.75;;;12.98;;
67665;SDS011;54448;51.472;-2.574;2022-12-07T04:08:18;36.22;;;12.73;;
67665;SDS011;54448;51.472;-2.574;2022-12-07T04:10:44;30.70;;;11.98;;
67665;SDS011;54448;51.472;-2.574;2022-12-07T04:13:09;35.38;;;12.27;;
67665;SDS011;54448;51.472;-2.574;2022-12-07T04:15:34;35.70;;;13.55;;
67665;SDS011;54448;51.472;-2.574;2022-12-07T04:18:00;32.05;;;12.25;;
67665;SDS011;54448;51.472;-2.574;2022-12-07T04:20:25;33.38;;;12.20;;
67665;SDS011;54448;51.472;-2.574;2022-12-07T04:22:50;28.27;;;12.43;;
67665;SDS011;54448;51.472;-2.574;2022-12-07T04:25:16;36.55;;;11.57;;
67665;SDS011;54448;51.472;-2.574;2022-12-07T04:27:41;33.70;;;13.82;;
67665;SDS011;54448;51.472;-2.574;2022-12-07T04:30:07;34.13;;;12.13;;
67665;SDS011;54448;51.472;-2.574;2022-12-07T04:32:32;34.08;;;12.73;;
67665;SDS011;54448;51.472;-2.574;2022-12-07T04:34:58;35.78;;;11.88;;
67665;SDS011;54448;51.472;-2.574;2022-12-07T04:37:23;35.95;;;12.27;;
67665;SDS011;54448;51.472;-2.574;2022-12-07T04:39:49;37.70;;;12.60;;
67665;SDS011;54448;51.472;-2.574;2022-12-07T04:42:14;37.75;;;12.80;;
67665;SDS011;54448;51.472;-2.574;2022-12-07T04:44:40;30.65;;;13.07;;
67665;SDS011;54448;51.472;-2.574;2022-12-07T04:47:05;34.78;;;12.00;;
67665;SDS011;54448;51.472;-2.574;2022-12-07T04:49:31;35.47;;;12.30;;
67665;SDS011;54448;51.472;-2.574;2022-12-07T04:51:56;36.50;;;11.52;;
67665;SDS011;54448;51.472;-2.574;2022-12-07T04:54:21;26.63;;;11.93;;
67665;SDS011;54448;51.472;-2.574;2022-12-07T04:56:47;28.60;;;10.93;;
67665;SDS011;54448;51.472;-2.574;2022-12-07T04:59:12;25.27;;;10.73;;
67665;SDS011;54448;51.472;-2.574;2022-12-07T05:01:39;28.38;;;11.13;;
67665;SDS011;54448;51.472;-2.574;2022-12-07T05:04:05;31.15;;;12.18;;
67665;SDS011;54448;51.472;-2.574;2022-12-07T05:06:30;28.42;;;10.73;;
67665;SDS011;54448;51.472;-2.574;2022-12-07T05:08:56;25.20;;;11.07;;
67665;SDS011;54448;51.472;-2.574;2022-12-07T05:11:21;36.40;;;13.02;;
67665;SDS011;54448;51.472;-2.574;2022-12-07T05:16:36;32.63;;;12.23;;
67665;SDS011;54448;51.472;-2.574;2022-12-07T05:19:02;33.72;;;12.32;;
67665;SDS011;54448;51.472;-2.574;2022-12-07T05:21:27;31.05;;;12.13;;
67665;SDS011;54448;51.472;-2.574;2022-12-07T05:23:53;28.70;;;12.20;;
67665;SDS011;54448;51.472;-2.574;2022-12-07T05:26:18;27.73;;;12.05;;
67665;SDS011;54448;51.472;-2.574;2022-12-07T05:28:43;30.77;;;11.20;;
67665;SDS011;54448;51.472;-2.574;2022-12-07T05:31:09;26.25;;;11.27;;
67665;SDS011;54448;51.472;-2.574;2022-12-07T05:33:34;33.33;;;11.68;;
67665;SDS011;54448;51.472;-2.574;2022-12-07T05:36:00;31.75;;;12.43;;
67665;SDS011;54448;51.472;-2.574;2022-12-07T05:38:30;34.88;;;12.80;;
67665;SDS011;54448;51.472;-2.574;2022-12-07T05:41:05;31.92;;;11.80;;
67665;SDS011;54448;51.472;-2.574;2022-12-07T05:43:31;31.75;;;12.05;;
67665;SDS011;54448;51.472;-2.574;2022-12-07T05:45:57;30.10;;;12.77;;
67665;SDS011;54448;51.472;-2.574;2022-12-07T05:48:22;36.35;;;13.30;;
67665;SDS011;54448;51.472;-2.574;2022-12-07T05:50:48;31.77;;;13.90;;
67665;SDS011;54448;51.472;-2.574;2022-12-07T05:53:14;34.90;;;13.73;;
67665;SDS011;54448;51.472;-2.574;2022-12-07T05:55:39;33.22;;;13.88;;
67665;SDS011;54448;51.472;-2.574;2022-12-07T05:58:05;30.90;;;12.90;;
67665;SDS011;54448;51.472;-2.574;2022-12-07T06:00:49;34.65;;;13.65;;
67665;SDS011;54448;51.472;-2.574;2022-12-07T06:03:14;39.30;;;14.80;;
67665;SDS011;54448;51.472;-2.574;2022-12-07T06:05:40;37.78;;;14.10;;
67665;SDS011;54448;51.472;-2.574;2022-12-07T06:08:05;44.80;;;14.80;;
67665;SDS011;54448;51.472;-2.574;2022-12-07T06:10:30;36.70;;;15.50;;
67665;SDS011;54448;51.472;-2.574;2022-12-07T06:12:56;43.00;;;14.93;;
67665;SDS011;54448;51.472;-2.574;2022-12-07T06:15:21;36.58;;;14.20;;
67665;SDS011;54448;51.472;-2.574;2022-12-07T06:17:48;37.38;;;14.10;;
67665;SDS011;54448;51.472;-2.574;2022-12-07T06:20:13;32.28;;;13.55;;
67665;SDS011;54448;51.472;-2.574;2022-12-07T06:22:39;35.03;;;13.10;;
67665;SDS011;54448;51.472;-2.574;2022-12-07T06:25:04;45.75;;;14.75;;
67665;SDS011;54448;51.472;-2.574;2022-12-07T06:27:30;36.05;;;14.18;;
67665;SDS011;54448;51.472;-2.574;2022-12-07T06:29:56;41.17;;;15.93;;
67665;SDS011;54448;51.472;-2.574;2022-12-07T06:32:21;40.45;;;16.42;;
67665;SDS011;54448;51.472;-2.574;2022-12-07T06:34:47;44.90;;;16.27;;
67665;SDS011;54448;51.472;-2.574;2022-12-07T06:37:12;58.92;;;17.55;;
67665;SDS011;54448;51.472;-2.574;2022-12-07T06:39:37;44.22;;;17.63;;
67665;SDS011;54448;51.472;-2.574;2022-12-07T06:42:03;48.72;;;18.95;;
67665;SDS011;54448;51.472;-2.574;2022-12-07T06:44:29;45.95;;;16.52;;
67665;SDS011;54448;51.472;-2.574;2022-12-07T06:46:54;46.33;;;18.58;;
67665;SDS011;54448;51.472;-2.574;2022-12-07T06:49:20;46.95;;;18.27;;
67665;SDS011;54448;51.472;-2.574;2022-12-07T06:51:45;41.13;;;16.67;;
67665;SDS011;54448;51.472;-2.574;2022-12-07T06:54:11;44.88;;;16.30;;
67665;SDS011;54448;51.472;-2.574;2022-12-07T06:56:37;43.35;;;16.98;;
67665;SDS011;54448;51.472;-2.574;2022-12-07T06:59:03;42.75;;;16.23;;
67665;SDS011;54448;51.472;-2.574;2022-12-07T07:01:28;41.00;;;16.25;;
67665;SDS011;54448;51.472;-2.574;2022-12-07T07:03:54;47.72;;;16.23;;
67665;SDS011;54448;51.472;-2.574;2022-12-07T07:06:19;41.42;;;15.63;;
67665;SDS011;54448;51.472;-2.574;2022-12-07T07:08:44;40.90;;;15.93;;
67665;SDS011;54448;51.472;-2.574;2022-12-07T07:11:10;41.10;;;15.40;;
67665;SDS011;54448;51.472;-2.574;2022-12-07T07:13:35;41.80;;;14.10;;
67665;SDS011;54448;51.472;-2.574;2022-12-07T07:16:01;35.10;;;14.82;;
67665;SDS011;54448;51.472;-2.574;2022-12-07T07:18:26;36.15;;;14.73;;
67665;SDS011;54448;51.472;-2.574;2022-12-07T07:20:52;36.00;;;14.07;;
67665;SDS011;54448;51.472;-2.574;2022-12-07T07:23:18;38.75;;;13.95;;
67665;SDS011;54448;51.472;-2.574;2022-12-07T07:25:45;41.75;;;14.55;;
67665;SDS011;54448;51.472;-2.574;2022-12-07T07:28:10;41.38;;;13.57;;
67665;SDS011;54448;51.472;-2.574;2022-12-07T07:30:36;36.47;;;14.85;;
67665;SDS011;54448;51.472;-2.574;2022-12-07T07:33:02;42.20;;;14.55;;
67665;SDS011;54448;51.472;-2.574;2022-12-07T07:35:28;42.42;;;14.60;;
67665;SDS011;54448;51.472;-2.574;2022-12-07T07:37:54;36.35;;;14.48;;
67665;SDS011;54448;51.472;-2.574;2022-12-07T07:40:20;37.95;;;14.18;;
67665;SDS011;54448;51.472;-2.574;2022-12-07T07:42:49;38.30;;;14.38;;
67665;SDS011;54448;51.472;-2.574;2022-12-07T07:45:15;43.88;;;16.23;;
67665;SDS011;54448;51.472;-2.574;2022-12-07T07:47:40;56.83;;;16.42;;
67665;SDS011;54448;51.472;-2.574;2022-12-07T07:50:06;62.95;;;21.23;;
67665;SDS011;54448;51.472;-2.574;2022-12-07T07:52:31;68.53;;;20.52;;
67665;SDS011;54448;51.472;-2.574;2022-12-07T07:54:57;66.55;;;19.30;;
67665;SDS011;54448;51.472;-2.574;2022-12-07T07:57:22;71.18;;;19.67;;
67665;SDS011;54448;51.472;-2.574;2022-12-07T07:59:48;61.70;;;18.38;;
67665;SDS011;54448;51.472;-2.574;2022-12-07T08:02:14;71.45;;;19.88;;
67665;SDS011;54448;51.472;-2.574;2022-12-07T08:04:41;70.20;;;19.50;;
67665;SDS011;54448;51.472;-2.574;2022-12-07T08:07:06;52.42;;;17.38;;
67665;SDS011;54448;51.472;-2.574;2022-12-07T08:09:31;50.88;;;16.98;;
67665;SDS011;54448;51.472;-2.574;2022-12-07T08:11:57;59.10;;;18.20;;
67665;SDS011;54448;51.472;-2.574;2022-12-07T08:14:22;53.72;;;18.45;;
67665;SDS011;54448;51.472;-2.574;2022-12-07T08:16:49;42.60;;;15.90;;
67665;SDS011;54448;51.472;-2.574;2022-12-07T08:19:14;47.15;;;16.00;;
67665;SDS011;54448;51.472;-2.574;2022-12-07T08:21:39;45.75;;;17.27;;
67665;SDS011;54448;51.472;-2.574;2022-12-07T08:24:05;50.28;;;17.30;;
67665;SDS011;54448;51.472;-2.574;2022-12-07T08:26:30;58.47;;;18.15;;
67665;SDS011;54448;51.472;-2.574;2022-12-07T08:28:55;47.28;;;17.98;;
67665;SDS011;54448;51.472;-2.574;2022-12-07T08:31:21;42.80;;;17.75;;
67665;SDS011;54448;51.472;-2.574;2022-12-07T08:33:47;54.05;;;18.52;;
67665;SDS011;54448;51.472;-2.574;2022-12-07T08:36:13;44.13;;;18.17;;
67665;SDS011;54448;51.472;-2.574;2022-12-07T08:38:40;50.60;;;19.15;;
67665;SDS011;54448;51.472;-2.574;2022-12-07T08:41:06;64.85;;;22.25;;
67665;SDS011;54448;51.472;-2.574;2022-12-07T08:43:31;48.15;;;20.27;;
67665;SDS011;54448;51.472;-2.574;2022-12-07T08:46:32;50.63;;;18.85;;
67665;SDS011;54448;51.472;-2.574;2022-12-07T08:48:54;48.20;;;19.35;;
67665;SDS011;54448;51.472;-2.574;2022-12-07T08:51:22;52.42;;;19.13;;
67665;SDS011;54448;51.472;-2.574;2022-12-07T08:53:48;47.35;;;19.05;;
67665;SDS011;54448;51.472;-2.574;2022-12-07T08:56:15;45.92;;;18.67;;
67665;SDS011;54448;51.472;-2.574;2022-12-07T08:58:40;48.97;;;18.42;;
67665;SDS011;54448;51.472;-2.574;2022-12-07T09:01:06;46.78;;;19.45;;
67665;SDS011;54448;51.472;-2.574;2022-12-07T09:03:31;54.20;;;19.58;;
67665;SDS011;54448;51.472;-2.574;2022-12-07T09:05:57;53.10;;;18.95;;
67665;SDS011;54448;51.472;-2.574;2022-12-07T09:08:23;50.60;;;20.13;;
67665;SDS011;54448;51.472;-2.574;2022-12-07T09:10:51;61.63;;;19.48;;
67665;SDS011;54448;51.472;-2.574;2022-12-07T09:13:17;54.97;;;19.98;;
67665;SDS011;54448;51.472;-2.574;2022-12-07T09:15:42;62.25;;;21.20;;
67665;SDS011;54448;51.472;-2.574;2022-12-07T09:18:07;55.78;;;20.85;;
67665;SDS011;54448;51.472;-2.574;2022-12-07T09:20:33;53.03;;;19.52;;
67665;SDS011;54448;51.472;-2.574;2022-12-07T09:22:58;51.50;;;21.08;;
67665;SDS011;54448;51.472;-2.574;2022-12-07T09:25:24;48.58;;;18.92;;
67665;SDS011;54448;51.472;-2.574;2022-12-07T09:27:55;52.40;;;19.83;;
67665;SDS011;54448;51.472;-2.574;2022-12-07T09:30:22;51.97;;;19.73;;
67665;SDS011;54448;51.472;-2.574;2022-12-07T09:32:47;52.13;;;20.88;;
67665;SDS011;54448;51.472;-2.574;2022-12-07T09:35:13;49.72;;;18.58;;
67665;SDS011;54448;51.472;-2.574;2022-12-07T09:37:38;63.80;;;22.75;;
67665;SDS011;54448;51.472;-2.574;2022-12-07T09:40:04;61.35;;;23.58;;
67665;SDS011;54448;51.472;-2.574;2022-12-07T09:42:37;54.50;;;23.35;;
67665;SDS011;54448;51.472;-2.574;2022-12-07T09:45:05;63.83;;;22.92;;
67665;SDS011;54448;51.472;-2.574;2022-12-07T09:47:32;63.40;;;25.55;;
67665;SDS011;54448;51.472;-2.574;2022-12-07T09:50:12;65.03;;;25.98;;
67665;SDS011;54448;51.472;-2.574;2022-12-07T09:52:39;66.03;;;26.63;;
67665;SDS011;54448;51.472;-2.574;2022-12-07T09:55:09;63.75;;;24.30;;
67665;SDS011;54448;51.472;-2.574;2022-12-07T09:57:36;65.30;;;25.20;;
67665;SDS011;54448;51.472;-2.574;2022-12-07T10:00:04;63.38;;;25.70;;
67665;SDS011;54448;51.472;-2.574;2022-12-07T10:02:35;71.85;;;25.98;;
67665;SDS011;54448;51.472;-2.574;2022-12-07T10:05:05;64.55;;;26.70;;
67665;SDS011;54448;51.472;-2.574;2022-12-07T10:07:32;70.32;;;25.23;;
67665;SDS011;54448;51.472;-2.574;2022-12-07T10:09:57;67.90;;;25.45;;
67665;SDS011;54448;51.472;-2.574;2022-12-07T10:12:22;68.88;;;25.05;;
67665;SDS011;54448;51.472;-2.574;2022-12-07T10:15:00;72.90;;;25.55;;
67665;SDS011;54448;51.472;-2.574;2022-12-07T10:17:32;79.43;;;28.58;;
67665;SDS011;54448;51.472;-2.574;2022-12-07T10:20:42;84.47;;;32.65;;
67665;SDS011;54448;51.472;-2.574;2022-12-07T10:25:31;66.90;;;24.70;;
67665;SDS011;54448;51.472;-2.574;2022-12-07T10:30:32;53.58;;;21.13;;
67665;SDS011;54448;51.472;-2.574;2022-12-07T10:32:58;57.42;;;20.75;;
67665;SDS011;54448;51.472;-2.574;2022-12-07T10:35:28;61.22;;;22.05;;
67665;SDS011;54448;51.472;-2.574;2022-12-07T10:37:56;52.83;;;21.48;;
67665;SDS011;54448;51.472;-2.574;2022-12-07T10:40:28;56.33;;;20.00;;
67665;SDS011;54448;51.472;-2.574;2022-12-07T10:43:15;41.72;;;21.23;;
67665;SDS011;54448;51.472;-2.574;2022-12-07T10:48:13;40.40;;;16.65;;
67665;SDS011;54448;51.472;-2.574;2022-12-07T10:50:49;38.58;;;17.73;;
67665;SDS011;54448;51.472;-2.574;2022-12-07T10:58:31;46.00;;;17.73;;
67665;SDS011;54448;51.472;-2.574;2022-12-07T11:09:23;44.25;;;15.70;;
67665;SDS011;54448;51.472;-2.574;2022-12-07T11:14:39;39.08;;;16.08;;
67665;SDS011;54448;51.472;-2.574;2022-12-07T11:17:42;33.80;;;13.98;;
67665;SDS011;54448;51.472;-2.574;2022-12-07T11:28:35;26.50;;;9.70;;
67665;SDS011;54448;51.472;-2.574;2022-12-07T11:34:07;20.52;;;5.72;;
67665;SDS011;54448;51.472;-2.574;2022-12-07T11:36:45;22.85;;;6.18;;
67665;SDS011;54448;51.472;-2.574;2022-12-07T11:39:28;21.02;;;5.65;;
67665;SDS011;54448;51.472;-2.574;2022-12-07T11:42:10;15.68;;;5.63;;
67665;SDS011;54448;51.472;-2.574;2022-12-07T11:55:42;18.05;;;6.82;;
67665;SDS011;54448;51.472;-2.574;2022-12-07T11:58:15;14.13;;;5.57;;
67665;SDS011;54448;51.472;-2.574;2022-12-07T12:00:44;18.70;;;6.18;;
67665;SDS011;54448;51.472;-2.574;2022-12-07T12:03:15;20.73;;;5.95;;
67665;SDS011;54448;51.472;-2.574;2022-12-07T12:08:21;16.40;;;6.75;;
67665;SDS011;54448;51.472;-2.574;2022-12-07T12:14:04;20.73;;;7.78;;
67665;SDS011;54448;51.472;-2.574;2022-12-07T12:24:46;22.02;;;7.95;;
67665;SDS011;54448;51.472;-2.574;2022-12-07T12:27:35;26.85;;;8.57;;
67665;SDS011;54448;51.472;-2.574;2022-12-07T12:30:04;24.80;;;8.32;;
67665;SDS011;54448;51.472;-2.574;2022-12-07T12:32:43;22.85;;;7.78;;
67665;SDS011;54448;51.472;-2.574;2022-12-07T12:40:58;23.10;;;7.00;;
67665;SDS011;54448;51.472;-2.574;2022-12-07T12:43:44;18.25;;;6.70;;
67665;SDS011;54448;51.472;-2.574;2022-12-07T12:48:54;17.70;;;7.07;;
67665;SDS011;54448;51.472;-2.574;2022-12-07T12:51:35;20.42;;;6.70;;
67665;SDS011;54448;51.472;-2.574;2022-12-07T12:54:04;18.10;;;6.50;;
67665;SDS011;54448;51.472;-2.574;2022-12-07T12:56:40;19.08;;;6.82;;
67665;SDS011;54448;51.472;-2.574;2022-12-07T13:01:46;18.90;;;7.20;;
67665;SDS011;54448;51.472;-2.574;2022-12-07T13:04:25;20.98;;;7.13;;
67665;SDS011;54448;51.472;-2.574;2022-12-07T13:06:54;19.83;;;6.85;;
67665;SDS011;54448;51.472;-2.574;2022-12-07T13:09:24;27.52;;;8.38;;
67665;SDS011;54448;51.472;-2.574;2022-12-07T13:12:00;28.75;;;6.72;;
67665;SDS011;54448;51.472;-2.574;2022-12-07T13:17:02;19.42;;;5.90;;
67665;SDS011;54448;51.472;-2.574;2022-12-07T13:24:56;19.75;;;6.72;;
67665;SDS011;54448;51.472;-2.574;2022-12-07T13:27:24;19.88;;;6.13;;
67665;SDS011;54448;51.472;-2.574;2022-12-07T13:29:50;19.90;;;6.50;;
67665;SDS011;54448;51.472;-2.574;2022-12-07T13:32:23;22.50;;;6.07;;
67665;SDS011;54448;51.472;-2.574;2022-12-07T13:39:53;21.23;;;5.15;;
67665;SDS011;54448;51.472;-2.574;2022-12-07T13:42:24;21.50;;;4.15;;
67665;SDS011;54448;51.472;-2.574;2022-12-07T13:45:01;17.27;;;4.38;;
67665;SDS011;54448;51.472;-2.574;2022-12-07T13:47:49;11.48;;;4.15;;
67665;SDS011;54448;51.472;-2.574;2022-12-07T13:50:25;11.85;;;4.22;;
67665;SDS011;54448;51.472;-2.574;2022-12-07T13:52:54;18.90;;;4.88;;
67665;SDS011;54448;51.472;-2.574;2022-12-07T13:55:20;14.20;;;4.30;;
67665;SDS011;54448;51.472;-2.574;2022-12-07T13:57:47;13.43;;;4.28;;
67665;SDS011;54448;51.472;-2.574;2022-12-07T14:00:18;17.40;;;5.72;;
67665;SDS011;54448;51.472;-2.574;2022-12-07T14:03:04;18.35;;;4.45;;
67665;SDS011;54448;51.472;-2.574;2022-12-07T14:06:03;10.48;;;3.80;;
67665;SDS011;54448;51.472;-2.574;2022-12-07T14:08:31;18.67;;;4.20;;
67665;SDS011;54448;51.472;-2.574;2022-12-07T14:10:56;16.75;;;3.97;;
67665;SDS011;54448;51.472;-2.574;2022-12-07T14:13:38;20.42;;;4.22;;
67665;SDS011;54448;51.472;-2.574;2022-12-07T14:18:46;13.57;;;4.13;;
67665;SDS011;54448;51.472;-2.574;2022-12-07T14:23:38;14.68;;;4.30;;
67665;SDS011;54448;51.472;-2.574;2022-12-07T14:26:12;16.13;;;3.97;;
67665;SDS011;54448;51.472;-2.574;2022-12-07T14:28:39;10.25;;;4.50;;
67665;SDS011;54448;51.472;-2.574;2022-12-07T14:31:24;16.63;;;4.75;;
67665;SDS011;54448;51.472;-2.574;2022-12-07T14:33:49;17.52;;;5.15;;
67665;SDS011;54448;51.472;-2.574;2022-12-07T14:36:15;19.30;;;4.88;;
67665;SDS011;54448;51.472;-2.574;2022-12-07T14:38:41;18.50;;;5.13;;
67665;SDS011;54448;51.472;-2.574;2022-12-07T14:41:10;12.02;;;4.45;;
67665;SDS011;54448;51.472;-2.574;2022-12-07T14:43:57;15.75;;;4.22;;
67665;SDS011;54448;51.472;-2.574;2022-12-07T14:46:23;16.45;;;4.88;;
67665;SDS011;54448;51.472;-2.574;2022-12-07T14:48:49;16.70;;;4.68;;
67665;SDS011;54448;51.472;-2.574;2022-12-07T14:51:14;17.35;;;4.82;;
67665;SDS011;54448;51.472;-2.574;2022-12-07T14:53:44;11.25;;;4.70;;
67665;SDS011;54448;51.472;-2.574;2022-12-07T14:56:13;12.40;;;4.85;;
67665;SDS011;54448;51.472;-2.574;2022-12-07T14:58:39;15.30;;;4.60;;
67665;SDS011;54448;51.472;-2.574;2022-12-07T15:01:05;19.63;;;5.13;;
67665;SDS011;54448;51.472;-2.574;2022-12-07T15:03:30;14.68;;;4.60;;
67665;SDS011;54448;51.472;-2.574;2022-12-07T15:05:56;18.65;;;4.80;;
67665;SDS011;54448;51.472;-2.574;2022-12-07T15:08:21;13.05;;;4.50;;
67665;SDS011;54448;51.472;-2.574;2022-12-07T15:10:47;16.42;;;5.03;;
67665;SDS011;54448;51.472;-2.574;2022-12-07T15:13:12;19.23;;;5.68;;
67665;SDS011;54448;51.472;-2.574;2022-12-07T15:15:56;12.98;;;5.03;;
67665;SDS011;54448;51.472;-2.574;2022-12-07T15:18:22;18.80;;;5.18;;
67665;SDS011;54448;51.472;-2.574;2022-12-07T15:20:49;18.33;;;5.43;;
67665;SDS011;54448;51.472;-2.574;2022-12-07T15:23:15;19.40;;;5.80;;
67665;SDS011;54448;51.472;-2.574;2022-12-07T15:25:44;20.83;;;5.40;;
67665;SDS011;54448;51.472;-2.574;2022-12-07T15:28:10;17.38;;;4.70;;
67665;SDS011;54448;51.472;-2.574;2022-12-07T15:30:37;18.83;;;5.50;;
67665;SDS011;54448;51.472;-2.574;2022-12-07T15:33:03;16.63;;;6.00;;
67665;SDS011;54448;51.472;-2.574;2022-12-07T15:35:28;19.17;;;6.35;;
67665;SDS011;54448;51.472;-2.574;2022-12-07T15:37:54;17.95;;;5.95;;
67665;SDS011;54448;51.472;-2.574;2022-12-07T15:40:19;20.83;;;5.43;;
67665;SDS011;54448;51.472;-2.574;2022-12-07T15:42:45;16.30;;;5.65;;
67665;SDS011;54448;51.472;-2.574;2022-12-07T15:45:10;23.95;;;6.43;;
67665;SDS011;54448;51.472;-2.574;2022-12-07T15:47:39;16.60;;;5.90;;
67665;SDS011;54448;51.472;-2.574;2022-12-07T15:50:07;26.92;;;6.25;;
67665;SDS011;54448;51.472;-2.574;2022-12-07T15:52:34;23.77;;;6.90;;
67665;SDS011;54448;51.472;-2.574;2022-12-07T15:54:59;18.65;;;7.75;;
67665;SDS011;54448;51.472;-2.574;2022-12-07T15:57:27;13.77;;;6.30;;
67665;SDS011;54448;51.472;-2.574;2022-12-07T15:59:53;18.48;;;6.85;;
67665;SDS011;54448;51.472;-2.574;2022-12-07T16:02:18;20.90;;;7.07;;
67665;SDS011;54448;51.472;-2.574;2022-12-07T16:04:44;25.35;;;7.20;;
67665;SDS011;54448;51.472;-2.574;2022-12-07T16:07:10;20.23;;;7.13;;
67665;SDS011;54448;51.472;-2.574;2022-12-07T16:09:36;23.20;;;7.72;;
67665;SDS011;54448;51.472;-2.574;2022-12-07T16:12:02;25.48;;;8.13;;
67665;SDS011;54448;51.472;-2.574;2022-12-07T16:14:28;32.72;;;11.00;;
67665;SDS011;54448;51.472;-2.574;2022-12-07T16:16:54;30.67;;;11.40;;
67665;SDS011;54448;51.472;-2.574;2022-12-07T16:19:19;30.30;;;9.55;;